createdAt,value
2023-01-08T00:01:09.054Z,67634.38
2023-01-08T00:03:37.405Z,67647.34
2023-01-08T00:06:07.423Z,67650.16
2023-01-08T00:08:35.380Z,67637.97
2023-01-08T00:11:03.025Z,67622.94
2023-01-08T00:13:30.489Z,67622.19
2023-01-08T00:16:02.427Z,67620.47
2023-01-08T00:18:30.055Z,67619.34
2023-01-08T00:20:58.124Z,67618.22
2023-01-08T00:23:26.307Z,67615.97
2023-01-08T00:25:54.240Z,67619.94
2023-01-08T00:28:22.192Z,67628.53
2023-01-08T00:30:49.777Z,67626.13
2023-01-08T00:33:17.501Z,67633.25
2023-01-08T00:35:44.806Z,67630.44
2023-01-08T00:38:12.494Z,67623.09
2023-01-08T00:40:40.586Z,67628.19
2023-01-08T00:43:08.637Z,67632.47
2023-01-08T00:45:36.126Z,67628.75
2023-01-08T00:48:03.479Z,67622.75
2023-01-08T00:50:31.355Z,67618.22
2023-01-08T00:52:58.856Z,67623.09
2023-01-08T00:55:26.221Z,67612.41
2023-01-08T00:57:53.671Z,67621.22
2023-01-08T01:00:21.738Z,67611.66
2023-01-08T01:02:49.253Z,67616.53
2023-01-08T01:05:17.551Z,67623.66
2023-01-08T01:07:45.465Z,67620.84
2023-01-08T01:10:15.307Z,67618.78
2023-01-08T01:12:43.486Z,67623.09
2023-01-08T01:15:15.031Z,67624.63
2023-01-08T01:17:44.557Z,67640.03
2023-01-08T01:20:18.617Z,67641.34
2023-01-08T01:22:46.067Z,67649.59
2023-01-08T01:25:13.522Z,67657.50
2023-01-08T01:27:41.081Z,67658.25
2023-01-08T01:30:09.323Z,67660.88
2023-01-08T01:32:36.712Z,67654.53
2023-01-08T01:35:04.331Z,67656.94
2023-01-08T01:37:32.276Z,67659.19
2023-01-08T01:39:59.559Z,67653.19
2023-01-08T01:42:42.137Z,67646.41
2023-01-08T01:45:21.565Z,67636.28
2023-01-08T01:48:06.075Z,67634.56
2023-01-08T01:50:47.076Z,67641.13
2023-01-08T01:53:27.245Z,67632.88
2023-01-08T01:55:55.462Z,67640.22
2023-01-08T01:58:32.078Z,67649.03
2023-01-08T02:01:04.027Z,67648.09
2023-01-08T02:03:35.791Z,67649.97
2023-01-08T02:06:11.763Z,67642.47
2023-01-08T02:09:14.546Z,67641.34
2023-01-08T02:11:49.334Z,67639.44
2023-01-08T02:14:27.133Z,67639.25
2023-01-08T02:17:01.169Z,67632.31
2023-01-08T02:19:38.792Z,67628.19
2023-01-08T02:22:12.351Z,67626.84
2023-01-08T02:24:56.540Z,67628.19
2023-01-08T02:27:28.141Z,67624.44
2023-01-08T02:29:57.539Z,67630.44
2023-01-08T02:32:33.153Z,67631.75
2023-01-08T02:35:00.713Z,67642.84
2023-01-08T02:37:28.364Z,67635.13
2023-01-08T02:40:09.016Z,67638.88
2023-01-08T02:42:42.607Z,67637.75
2023-01-08T02:45:19.416Z,67633.47
2023-01-08T02:47:56.234Z,67637.56
2023-01-08T02:50:37.933Z,67632.13
2023-01-08T02:53:13.916Z,67632.13
2023-01-08T02:55:45.032Z,67628.75
2023-01-08T02:58:13.272Z,67638.13
2023-01-08T03:00:42.852Z,67633.47
2023-01-08T03:03:15.942Z,67626.69
2023-01-08T03:05:48.728Z,67625.91
2023-01-08T03:08:18.647Z,67630.06
2023-01-08T03:10:54.947Z,67631.00
2023-01-08T03:13:31.532Z,67631.19
2023-01-08T03:16:01.844Z,67627.44
2023-01-08T03:18:35.997Z,67627.25
2023-01-08T03:21:06.826Z,67628.19
2023-01-08T03:23:37.490Z,67623.66
2023-01-08T03:26:06.820Z,67617.31
2023-01-08T03:28:44.686Z,67626.50
2023-01-08T03:31:17.092Z,67618.97
2023-01-08T03:33:47.811Z,67624.03
2023-01-08T03:36:24.093Z,67614.28
2023-01-08T03:39:03.611Z,67616.72
2023-01-08T03:41:37.572Z,67618.59
2023-01-08T03:44:06.659Z,67621.41
2023-01-08T03:46:48.309Z,67621.97
2023-01-08T03:49:17.239Z,67614.47
2023-01-08T03:51:55.268Z,67618.22
2023-01-08T03:54:30.201Z,67615.22
2023-01-08T03:56:57.563Z,67617.81
2023-01-08T03:59:27.904Z,67624.59
2023-01-08T04:01:55.411Z,67623.09
2023-01-08T04:04:31.933Z,67622.75
2023-01-08T04:07:05.538Z,67622.75
2023-01-08T04:09:35.630Z,67629.31
2023-01-08T04:12:03.471Z,67632.13
2023-01-08T04:14:33.660Z,67626.13
2023-01-08T04:17:01.289Z,67625.91
2023-01-08T04:19:28.740Z,67633.06
2023-01-08T04:21:58.790Z,67632.47
2023-01-08T04:24:27.256Z,67620.13
2023-01-08T04:26:54.567Z,67625.00
2023-01-08T04:29:22.052Z,67630.81
2023-01-08T04:31:53.643Z,67625.91
2023-01-08T04:34:21.422Z,67627.97
2023-01-08T04:36:52.944Z,67629.31
2023-01-08T04:39:22.738Z,67632.31
2023-01-08T04:41:52.788Z,67628.38
2023-01-08T04:44:20.026Z,67625.34
2023-01-08T04:46:50.327Z,67620.47
2023-01-08T04:49:17.757Z,67618.78
2023-01-08T04:51:47.604Z,67623.66
2023-01-08T04:54:15.658Z,67620.47
2023-01-08T04:56:43.794Z,67617.47
2023-01-08T04:59:48.986Z,67616.53
2023-01-08T05:02:19.393Z,67626.28
2023-01-08T05:04:54.035Z,67623.47
2023-01-08T05:07:21.477Z,67618.78
2023-01-08T05:09:48.758Z,67621.97
2023-01-08T05:12:27.655Z,67616.53
2023-01-08T05:14:55.023Z,67620.47
2023-01-08T05:17:25.983Z,67618.03
2023-01-08T05:20:04.561Z,67620.28
2023-01-08T05:22:34.005Z,67618.38
2023-01-08T05:25:01.482Z,67614.06
2023-01-08T05:27:31.837Z,67610.91
2023-01-08T05:29:59.233Z,67618.38
2023-01-08T05:32:27.102Z,67611.25
2023-01-08T05:34:54.401Z,67612.19
2023-01-08T05:37:21.919Z,67607.16
2023-01-08T05:39:49.089Z,67610.34
2023-01-08T05:42:16.425Z,67611.25
2023-01-08T05:44:43.949Z,67605.81
2023-01-08T05:47:11.211Z,67609.75
2023-01-08T05:49:38.445Z,67606.94
2023-01-08T05:52:05.750Z,67603.56
2023-01-08T05:54:33.030Z,67605.25
2023-01-08T05:57:03.276Z,67606.41
2023-01-08T05:59:30.493Z,67602.78
2023-01-08T06:01:57.806Z,67607.88
2023-01-08T06:04:30.510Z,67607.50
2023-01-08T06:06:57.903Z,67606.19
2023-01-08T06:09:25.250Z,67606.41
2023-01-08T06:11:58.168Z,67600.75
2023-01-08T06:14:27.587Z,67612.19
2023-01-08T06:16:54.997Z,67605.25
2023-01-08T06:19:22.795Z,67605.25
2023-01-08T06:21:50.101Z,67601.88
2023-01-08T06:24:20.219Z,67607.88
2023-01-08T06:26:47.517Z,67599.06
2023-01-08T06:29:14.780Z,67594.53
2023-01-08T06:31:42.075Z,67593.97
2023-01-08T06:34:12.336Z,67592.09
2023-01-08T06:36:39.568Z,67591.50
2023-01-08T06:39:07.478Z,67587.56
2023-01-08T06:41:34.850Z,67583.28
2023-01-08T06:44:02.027Z,67584.56
2023-01-08T06:46:29.211Z,67581.75
2023-01-08T06:48:56.429Z,67574.81
2023-01-08T06:51:26.319Z,67575.94
2023-01-08T06:53:54.036Z,67578.75
2023-01-08T06:56:21.221Z,67590.00
2023-01-08T06:58:48.351Z,67585.53
2023-01-08T07:01:16.926Z,67590.75
2023-01-08T07:03:44.557Z,67583.28
2023-01-08T07:06:20.043Z,67582.72
2023-01-08T07:08:47.338Z,67585.31
2023-01-08T07:11:15.648Z,67585.31
2023-01-08T07:13:42.875Z,67584.41
2023-01-08T07:16:12.637Z,67588.16
2023-01-08T07:18:40.198Z,67591.50
2023-01-08T07:21:08.297Z,67591.50
2023-01-08T07:23:38.474Z,67588.91
2023-01-08T07:26:07.928Z,67595.13
2023-01-08T07:28:35.157Z,67592.88
2023-01-08T07:31:06.548Z,67592.28
2023-01-08T07:33:34.149Z,67588.56
2023-01-08T07:36:01.722Z,67589.66
2023-01-08T07:38:31.686Z,67600.34
2023-01-08T07:41:01.226Z,67598.84
2023-01-08T07:43:32.616Z,67593.97
2023-01-08T07:46:02.381Z,67597.72
2023-01-08T07:48:29.621Z,67597.38
2023-01-08T07:51:02.961Z,67604.84
2023-01-08T07:53:30.376Z,67604.84
2023-01-08T07:56:05.439Z,67606.00
2023-01-08T07:58:32.899Z,67608.06
2023-01-08T08:01:00.900Z,67605.25
2023-01-08T08:03:28.238Z,67608.44
2023-01-08T08:05:55.472Z,67614.06
2023-01-08T08:08:22.573Z,67614.63
2023-01-08T08:10:53.957Z,67613.50
2023-01-08T08:13:23.655Z,67610.34
2023-01-08T08:15:50.916Z,67614.06
2023-01-08T08:18:20.701Z,67624.03
2023-01-08T08:20:49.406Z,67620.28
2023-01-08T08:23:16.612Z,67620.47
2023-01-08T08:25:46.609Z,67629.31
2023-01-08T08:28:13.953Z,67632.69
2023-01-08T08:30:44.153Z,67635.72
2023-01-08T08:33:14.090Z,67647.56
2023-01-08T08:35:41.198Z,67650.72
2023-01-08T08:38:09.839Z,67663.16
2023-01-08T08:40:36.919Z,67688.53
2023-01-08T08:43:12.918Z,67721.25
2023-01-08T08:45:40.147Z,67711.28
2023-01-08T08:48:08.603Z,67697.75
2023-01-08T08:50:36.970Z,67686.28
2023-01-08T08:53:05.745Z,67681.00
2023-01-08T08:55:33.647Z,67678.94
2023-01-08T08:58:12.228Z,67672.56
2023-01-08T09:00:40.653Z,67679.84
2023-01-08T09:03:14.863Z,67674.63
2023-01-08T09:05:45.579Z,67677.09
2023-01-08T09:08:15.237Z,67685.69
2023-01-08T09:10:48.253Z,67684.78
2023-01-08T09:13:15.465Z,67689.84
2023-01-08T09:15:43.089Z,67691.19
2023-01-08T09:18:15.809Z,67694.00
2023-01-08T09:20:43.121Z,67703.19
2023-01-08T09:23:10.336Z,67702.84
2023-01-08T09:25:38.912Z,67707.72
2023-01-08T09:28:12.288Z,67710.72
2023-01-08T09:30:43.973Z,67710.53
2023-01-08T09:33:11.531Z,67713.00
2023-01-08T09:35:38.858Z,67718.06
2023-01-08T09:38:08.837Z,67724.44
2023-01-08T09:40:51.930Z,67725.38
2023-01-08T09:43:22.827Z,67728.00
2023-01-08T09:46:00.030Z,67730.63
2023-01-08T09:48:31.205Z,67724.63
2023-01-08T09:50:58.769Z,67721.44
2023-01-08T09:53:26.210Z,67723.13
2023-01-08T09:56:09.662Z,67727.09
2023-01-08T09:58:47.099Z,67722.56
2023-01-08T10:01:17.005Z,67722.03
2023-01-08T10:03:48.694Z,67732.91
2023-01-08T10:06:19.637Z,67724.84
2023-01-08T10:08:47.023Z,67722.03
2023-01-08T10:11:16.407Z,67726.69
2023-01-08T10:13:53.566Z,67724.06
2023-01-08T10:16:33.806Z,67723.34
2023-01-08T10:19:03.187Z,67718.63
2023-01-08T10:21:43.863Z,67722.38
2023-01-08T10:24:11.016Z,67724.63
2023-01-08T10:26:41.539Z,67727.28
2023-01-08T10:29:16.171Z,67730.47
2023-01-08T10:31:52.767Z,67728.78
2023-01-08T10:34:45.972Z,67725.59
2023-01-08T10:37:27.838Z,67725.97
2023-01-08T10:40:23.266Z,67727.81
2023-01-08T10:42:52.209Z,67724.28
2023-01-08T10:45:28.071Z,67735.72
2023-01-08T10:48:02.426Z,67738.94
2023-01-08T10:50:32.317Z,67736.31
2023-01-08T10:53:21.474Z,67736.50
2023-01-08T10:55:59.241Z,67738.19
2023-01-08T10:58:28.323Z,67747.00
2023-01-08T11:00:57.627Z,67750.03
2023-01-08T11:03:32.138Z,67749.81
2023-01-08T11:05:59.574Z,67750.03
2023-01-08T11:08:28.885Z,67752.47
2023-01-08T11:10:59.377Z,67763.03
2023-01-08T11:13:27.065Z,67763.03
2023-01-08T11:16:24.043Z,67774.50
2023-01-08T11:18:52.019Z,67774.13
2023-01-08T11:21:43.049Z,67779.38
2023-01-08T11:24:24.649Z,67781.06
2023-01-08T11:27:01.344Z,67786.34
2023-01-08T11:29:50.041Z,67801.59
2023-01-08T11:32:38.836Z,67790.88
2023-01-08T11:35:25.278Z,67800.06
2023-01-08T11:37:58.267Z,67777.13
2023-01-08T11:40:42.852Z,67787.28
2023-01-08T11:43:47.959Z,67784.88
2023-01-08T11:46:23.955Z,67779.00
2023-01-08T11:49:21.575Z,67773.72
2023-01-08T11:52:14.584Z,67761.50
2023-01-08T11:55:22.538Z,67753.44
2023-01-08T11:57:55.570Z,67750.59
2023-01-08T12:00:30.425Z,67750.81
2023-01-08T12:03:14.052Z,67756.78
2023-01-08T12:06:00.734Z,67753.25
2023-01-08T12:08:39.087Z,67764.91
2023-01-08T12:11:29.809Z,67778.59
2023-01-08T12:14:12.075Z,67779.56
2023-01-08T12:16:47.900Z,67780.91
2023-01-08T12:19:27.554Z,67786.53
2023-01-08T12:22:12.959Z,67787.84
2023-01-08T12:25:22.212Z,67786.16
2023-01-08T12:28:21.136Z,67780.53
2023-01-08T12:30:57.447Z,67774.91
2023-01-08T12:33:54.196Z,67777.31
2023-01-08T12:36:32.176Z,67782.19
2023-01-08T12:39:08.743Z,67776.75
2023-01-08T12:41:45.562Z,67784.81
2023-01-08T12:44:23.920Z,67783.53
2023-01-08T12:46:55.394Z,67783.53
2023-01-08T12:49:42.098Z,67781.47
2023-01-08T12:52:20.122Z,67785.78
2023-01-08T12:55:02.306Z,67780.72
2023-01-08T12:57:39.019Z,67782.97
2023-01-08T13:00:36.723Z,67786.16
2023-01-08T13:03:17.783Z,67790.69
2023-01-08T13:05:45.588Z,67809.88
2023-01-08T13:08:34.305Z,67804.22
2023-01-08T13:11:02.366Z,67802.72
2023-01-08T13:13:45.883Z,67798.22
2023-01-08T13:16:17.244Z,67798.56
2023-01-08T13:19:02.119Z,67793.13
2023-01-08T13:21:54.028Z,67797.09
2023-01-08T13:24:38.913Z,67790.88
2023-01-08T13:27:29.645Z,67791.44
2023-01-08T13:30:00.613Z,67789.75
2023-01-08T13:32:49.002Z,67788.06
2023-01-08T13:35:16.352Z,67788.97
2023-01-08T13:37:47.147Z,67778.09
2023-01-08T13:40:47.315Z,67776.75
2023-01-08T13:43:25.471Z,67775.44
2023-01-08T13:46:09.467Z,67772.25
2023-01-08T13:48:49.897Z,67769.03
2023-01-08T13:51:44.875Z,67770.00
2023-01-08T13:54:12.187Z,67764.53
2023-01-08T13:56:42.062Z,67768.09
2023-01-08T13:59:43.374Z,67765.84
2023-01-08T14:02:25.377Z,67760.41
2023-01-08T14:04:56.235Z,67747.81
2023-01-08T14:07:24.099Z,67751.91
2023-01-08T14:09:51.762Z,67747.59
2023-01-08T14:12:22.094Z,67739.69
2023-01-08T14:15:00.986Z,67739.09
2023-01-08T14:17:31.937Z,67730.47
2023-01-08T14:19:59.999Z,67729.16
2023-01-08T14:22:37.978Z,67722.78
2023-01-08T14:25:08.304Z,67725.38
2023-01-08T14:27:35.823Z,67727.66
2023-01-08T14:30:14.987Z,67724.63
2023-01-08T14:32:45.582Z,67715.03
2023-01-08T14:35:18.501Z,67712.03
2023-01-08T14:37:46.032Z,67702.25
2023-01-08T14:40:15.608Z,67699.44
2023-01-08T14:42:53.618Z,67696.22
2023-01-08T14:45:34.094Z,67691.91
2023-01-08T14:48:22.732Z,67684.22
2023-01-08T14:51:09.367Z,67676.88
2023-01-08T14:53:43.109Z,67676.69
2023-01-08T14:56:19.726Z,67675.00
2023-01-08T14:58:47.631Z,67677.06
2023-01-08T15:01:16.482Z,67672.94
2023-01-08T15:03:45.800Z,67673.28
2023-01-08T15:06:24.676Z,67675.53
2023-01-08T15:08:52.197Z,67672.72
2023-01-08T15:11:19.386Z,67668.06
2023-01-08T15:13:48.479Z,67667.28
2023-01-08T15:16:32.122Z,67665.03
2023-01-08T15:19:14.526Z,67669.72
2023-01-08T15:21:53.549Z,67665.97
2023-01-08T15:24:33.243Z,67665.03
2023-01-08T15:27:09.880Z,67664.47
2023-01-08T15:29:50.944Z,67664.47
2023-01-08T15:32:18.401Z,67666.50
2023-01-08T15:34:47.547Z,67668.03
2023-01-08T15:37:15.857Z,67663.34
2023-01-08T15:39:43.307Z,67663.16
2023-01-08T15:42:37.219Z,67658.47
2023-01-08T15:45:06.404Z,67657.69
2023-01-08T15:47:33.863Z,67663.50
2023-01-08T15:50:01.294Z,67659.38
2023-01-08T15:52:33.581Z,67655.44
2023-01-08T15:55:01.973Z,67653.19
2023-01-08T15:57:32.543Z,67653.34
2023-01-08T15:59:59.829Z,67654.66
2023-01-08T16:02:27.262Z,67656.38
2023-01-08T16:04:57.495Z,67657.28
2023-01-08T16:07:24.697Z,67654.66
2023-01-08T16:09:52.511Z,67654.13
2023-01-08T16:12:19.674Z,67647.56
2023-01-08T16:14:46.744Z,67650.16
2023-01-08T16:17:14.176Z,67643.03
2023-01-08T16:19:41.449Z,67643.03
2023-01-08T16:22:08.838Z,67642.47
2023-01-08T16:24:36.221Z,67641.72
2023-01-08T16:27:03.619Z,67642.28
2023-01-08T16:29:31.441Z,67643.03
2023-01-08T16:32:00.222Z,67640.44
2023-01-08T16:34:30.610Z,67641.34
2023-01-08T16:36:58.186Z,67648.84
2023-01-08T16:39:25.485Z,67649.59
2023-01-08T16:41:52.682Z,67652.22
2023-01-08T16:44:22.851Z,67644.16
2023-01-08T16:46:53.786Z,67643.97
2023-01-08T16:49:21.776Z,67635.34
2023-01-08T16:51:49.061Z,67643.59
2023-01-08T16:54:17.489Z,67641.50
2023-01-08T16:56:44.766Z,67634.38
2023-01-08T16:59:22.635Z,67630.63
2023-01-08T17:01:52.023Z,67631.75
2023-01-08T17:04:19.970Z,67629.84
2023-01-08T17:06:47.229Z,67631.00
2023-01-08T17:09:16.066Z,67626.31
2023-01-08T17:11:43.458Z,67633.81
2023-01-08T17:14:10.641Z,67630.06
2023-01-08T17:16:37.933Z,67634.38
2023-01-08T17:19:05.365Z,67632.31
2023-01-08T17:21:33.807Z,67632.31
2023-01-08T17:24:00.916Z,67627.03
2023-01-08T17:26:28.387Z,67625.34
2023-01-08T17:28:55.685Z,67615.03
2023-01-08T17:31:23.199Z,67618.22
2023-01-08T17:33:51.569Z,67621.03
2023-01-08T17:36:24.900Z,67626.13
2023-01-08T17:38:54.325Z,67638.69
2023-01-08T17:41:44.763Z,67635.50
2023-01-08T17:44:12.733Z,67637.19
2023-01-08T17:46:43.868Z,67635.13
2023-01-08T17:49:13.416Z,67640.59
2023-01-08T17:51:41.635Z,67642.06
2023-01-08T17:54:15.248Z,67640.03
2023-01-08T17:56:46.222Z,67637.97
2023-01-08T17:59:15.940Z,67641.13
2023-01-08T18:01:46.274Z,67641.91
2023-01-08T18:04:14.895Z,67636.81
2023-01-08T18:06:42.698Z,67640.59
2023-01-08T18:09:12.016Z,67643.75
2023-01-08T18:11:42.598Z,67630.63
2023-01-08T18:14:14.668Z,67625.00
2023-01-08T18:16:45.777Z,67623.88
2023-01-08T18:19:16.748Z,67616.16
2023-01-08T18:21:44.629Z,67615.97
2023-01-08T18:24:12.543Z,67613.50
2023-01-08T18:26:42.883Z,67604.13
2023-01-08T18:29:09.934Z,67599.06
2023-01-08T18:31:40.886Z,67599.78
2023-01-08T18:34:11.600Z,67593.78
2023-01-08T18:36:41.951Z,67596.59
2023-01-08T18:39:11.417Z,67594.34
2023-01-08T18:41:57.022Z,67590.41
2023-01-08T18:44:25.134Z,67586.47
2023-01-08T18:46:54.007Z,67584.75
2023-01-08T18:49:21.473Z,67582.72
2023-01-08T18:51:51.363Z,67579.91
2023-01-08T18:54:18.545Z,67571.66
2023-01-08T18:56:46.589Z,67574.03
2023-01-08T18:59:14.039Z,67569.75
2023-01-08T19:01:41.789Z,67569.00
2023-01-08T19:04:18.462Z,67568.41
2023-01-08T19:06:45.915Z,67564.69
2023-01-08T19:09:15.282Z,67573.84
2023-01-08T19:11:43.792Z,67565.22
2023-01-08T19:14:12.135Z,67565.78
2023-01-08T19:16:40.123Z,67565.03
2023-01-08T19:19:07.486Z,67568.41
2023-01-08T19:21:37.105Z,67566.38
2023-01-08T19:24:04.594Z,67563.53
2023-01-08T19:26:31.861Z,67567.84
2023-01-08T19:28:59.063Z,67567.84
2023-01-08T19:31:26.365Z,67561.84
2023-01-08T19:33:53.531Z,67568.41
2023-01-08T19:36:21.311Z,67573.84
2023-01-08T19:38:48.497Z,67572.56
2023-01-08T19:41:34.129Z,67575.75
2023-01-08T19:44:01.422Z,67576.31
2023-01-08T19:46:28.816Z,67580.03
2023-01-08T19:48:58.175Z,67577.44
2023-01-08T19:51:26.138Z,67572.00
2023-01-08T19:53:54.058Z,67579.50
2023-01-08T19:56:21.164Z,67581.75
2023-01-08T19:58:48.689Z,67578.19
2023-01-08T20:01:21.610Z,67590.41
2023-01-08T20:03:49.154Z,67588.72
2023-01-08T20:06:19.947Z,67591.72
2023-01-08T20:08:48.378Z,67582.72
2023-01-08T20:11:16.920Z,67584.75
2023-01-08T20:13:44.374Z,67580.81
2023-01-08T20:16:13.977Z,67583.63
2023-01-08T20:18:41.261Z,67588.16
2023-01-08T20:21:11.458Z,67590.97
2023-01-08T20:23:39.080Z,67589.06
2023-01-08T20:26:30.608Z,67585.53
2023-01-08T20:28:59.152Z,67581.59
2023-01-08T20:31:36.944Z,67592.47
2023-01-08T20:34:07.126Z,67592.47
2023-01-08T20:36:36.311Z,67586.66
2023-01-08T20:39:11.423Z,67590.75
2023-01-08T20:41:39.555Z,67593.56
2023-01-08T20:44:08.106Z,67589.47
2023-01-08T20:46:36.056Z,67583.84
2023-01-08T20:49:12.155Z,67584.97
2023-01-08T20:51:44.111Z,67587.94
2023-01-08T20:54:14.345Z,67583.84
2023-01-08T20:56:43.330Z,67584.03
2023-01-08T20:59:11.089Z,67589.25
2023-01-08T21:01:38.265Z,67584.63
2023-01-08T21:04:07.129Z,67589.84
2023-01-08T21:06:36.631Z,67592.88
2023-01-08T21:09:09.686Z,67588.91
2023-01-08T21:11:39.736Z,67590.03
2023-01-08T21:14:13.181Z,67587.97
2023-01-08T21:16:40.735Z,67591.19
2023-01-08T21:19:10.349Z,67594.13
2023-01-08T21:21:40.183Z,67591.72
2023-01-08T21:24:14.170Z,67584.03
2023-01-08T21:26:41.425Z,67586.09
2023-01-08T21:29:09.113Z,67588.50
2023-01-08T21:31:37.661Z,67583.28
2023-01-08T21:34:06.068Z,67584.97
2023-01-08T21:36:33.440Z,67587.00
2023-01-08T21:39:01.759Z,67591.31
2023-01-08T21:41:48.493Z,67586.09
2023-01-08T21:44:39.765Z,67586.66
2023-01-08T21:47:16.341Z,67583.84
2023-01-08T21:49:45.037Z,67579.91
2023-01-08T21:52:33.493Z,67584.41
2023-01-08T21:55:01.648Z,67583.28
2023-01-08T21:57:29.015Z,67582.50
2023-01-08T21:59:56.413Z,67578.19
2023-01-08T22:02:24.346Z,67578.56
2023-01-08T22:04:54.737Z,67576.50
2023-01-08T22:07:21.852Z,67580.81
2023-01-08T22:09:48.944Z,67574.25
2023-01-08T22:12:16.823Z,67571.78
2023-01-08T22:14:43.916Z,67566.94
2023-01-08T22:17:10.966Z,67564.88
2023-01-08T22:19:39.261Z,67568.41
2023-01-08T22:22:11.191Z,67568.41
2023-01-08T22:24:41.411Z,67575.53
2023-01-08T22:27:11.362Z,67566.16
2023-01-08T22:29:38.516Z,67564.69
2023-01-08T22:32:05.648Z,67566.94
2023-01-08T22:34:38.819Z,67569.75
2023-01-08T22:37:06.104Z,67574.63
2023-01-08T22:39:33.164Z,67568.25
2023-01-08T22:42:00.840Z,67568.81
2023-01-08T22:44:27.915Z,67576.50
2023-01-08T22:46:55.684Z,67588.72
2023-01-08T22:49:22.760Z,67581.94
2023-01-08T22:51:53.744Z,67581.19
2023-01-08T22:54:25.103Z,67576.50
2023-01-08T22:56:52.253Z,67579.31
2023-01-08T22:59:21.124Z,67573.13
2023-01-08T23:01:48.335Z,67589.06
2023-01-08T23:04:15.679Z,67587.78
2023-01-08T23:06:42.759Z,67587.00
2023-01-08T23:09:09.859Z,67593.56
2023-01-08T23:11:36.980Z,67590.19
2023-01-08T23:14:04.365Z,67588.16
2023-01-08T23:16:31.481Z,67588.34
2023-01-08T23:19:00.925Z,67592.47
2023-01-08T23:21:28.554Z,67589.47
2023-01-08T23:23:55.803Z,67591.19
2023-01-08T23:26:26.251Z,67588.72
2023-01-08T23:28:55.093Z,67583.28
2023-01-08T23:31:25.980Z,67583.84
2023-01-08T23:33:53.316Z,67596.41
2023-01-08T23:36:21.569Z,67595.13
2023-01-08T23:38:51.221Z,67595.47
2023-01-08T23:41:20.363Z,67590.97
2023-01-08T23:43:48.851Z,67596.22
2023-01-08T23:46:16.910Z,67586.88
2023-01-08T23:48:44.117Z,67595.47
2023-01-08T23:51:11.737Z,67590.81
2023-01-08T23:53:38.924Z,67590.25
2023-01-08T23:56:06.312Z,67594.53
2023-01-08T23:58:33.562Z,67600.53
